Time;durP1;ratioP1;P1;durP2;ratioP2;P2;SDS_P1;SDS_P2;PMS_P1;PMS_P2;Temp;Humidity;BMP_temperature;BMP_pressure;BME280_temperature;BME280_humidity;BME280_pressure;Samples;Min_cycle;Max_cycle;Signal;HPM_P1;HPM_P2
2022/11/16 04:50:23;;;;;;;79.67;38.53;;;;;;;5.07;100.00;98918.38;5086655;27;20930;-56
2022/11/16 04:52:50;;;;;;;86.30;40.00;;;;;;;5.03;100.00;98888.41;5054927;28;20231;-57
2022/11/16 04:55:17;;;;;;;86.97;40.47;;;;;;;5.35;100.00;98918.72;5063632;28;20220;-57
2022/11/16 04:57:44;;;;;;;87.90;42.80;;;;;;;5.44;100.00;98918.56;5065961;28;20218;-56
2022/11/16 05:00:12;;;;;;;92.13;41.60;;;;;;;5.54;100.00;98914.09;5066348;28;20220;-57
2022/11/16 05:02:39;;;;;;;87.17;41.43;;;;;;;5.66;100.00;98903.56;5066020;28;20593;-56
2022/11/16 05:05:07;;;;;;;91.30;40.87;;;;;;;5.75;100.00;98915.44;5066301;28;20323;-57
2022/11/16 05:07:35;;;;;;;81.37;40.63;;;;;;;5.80;100.00;98917.03;5073896;28;20192;-57
2022/11/16 05:10:03;;;;;;;80.10;40.97;;;;;;;5.90;100.00;98912.59;5065619;28;20216;-55
2022/11/16 05:12:30;;;;;;;80.17;41.17;;;;;;;6.02;100.00;98908.91;5066170;28;20196;-54
2022/11/16 05:14:57;;;;;;;79.70;39.93;;;;;;;6.07;100.00;98917.41;5066369;28;20200;-53
2022/11/16 05:17:26;;;;;;;77.90;39.77;;;;;;;6.08;100.00;98926.84;5066469;28;20592;-56
2022/11/16 05:22:39;;;;;;;76.93;40.17;;;;;;;6.25;100.00;98923.91;5066461;28;20202;-56
2022/11/16 05:25:08;;;;;;;78.30;40.50;;;;;;;6.32;100.00;98933.22;5066370;28;20200;-58
2022/11/16 05:27:36;;;;;;;75.37;39.60;;;;;;;6.30;100.00;98928.09;5066208;28;20202;-56
2022/11/16 05:30:03;;;;;;;81.93;43.13;;;;;;;6.40;100.00;98939.06;5065683;28;20581;-55
2022/11/16 05:32:30;;;;;;;84.00;42.93;;;;;;;6.40;100.00;98946.78;5065913;28;20286;-56
2022/11/16 05:34:57;;;;;;;79.33;41.97;;;;;;;6.41;100.00;98941.63;5065799;28;20203;-59
2022/11/16 05:37:25;;;;;;;73.93;40.03;;;;;;;6.40;100.00;98932.19;5064843;28;20239;-57
2022/11/16 05:39:55;;;;;;;78.50;40.73;;;;;;;6.52;100.00;98938.81;5065835;28;20207;-58
2022/11/16 05:42:22;;;;;;;80.50;42.00;;;;;;;6.56;100.00;98935.25;5062303;28;20903;-59
2022/11/16 05:44:49;;;;;;;82.83;43.07;;;;;;;6.62;100.00;98935.13;5044858;28;20308;-59
2022/11/16 05:47:16;;;;;;;89.20;46.17;;;;;;;6.61;100.00;98938.59;5044611;28;20224;-59
2022/11/16 05:49:43;;;;;;;72.37;39.07;;;;;;;6.78;100.00;98943.34;5044782;28;20623;-59
2022/11/16 05:52:10;;;;;;;69.87;38.93;;;;;;;6.91;100.00;98947.34;5056929;28;20224;-58
2022/11/16 05:54:37;;;;;;;68.50;38.67;;;;;;;6.90;100.00;98948.25;5064779;28;20789;-58
2022/11/16 05:57:05;;;;;;;75.33;39.27;;;;;;;7.04;100.00;98933.28;5064935;28;20238;-59
2022/11/16 05:59:32;;;;;;;76.03;39.73;;;;;;;7.05;100.00;98939.31;5079511;28;20595;-58
2022/11/16 06:01:59;;;;;;;66.23;38.17;;;;;;;7.27;100.00;98936.16;5070264;28;20203;-59
2022/11/16 06:04:26;;;;;;;78.77;40.83;;;;;;;7.30;100.00;98948.16;5071970;28;20649;-58
2022/11/16 06:06:53;;;;;;;72.50;38.87;;;;;;;7.48;100.00;98939.09;5054595;28;20209;-60
2022/11/16 06:09:20;;;;;;;75.03;38.40;;;;;;;7.55;100.00;98935.47;5051207;28;20224;-60
2022/11/16 06:11:47;;;;;;;68.53;38.90;;;;;;;7.51;100.00;98931.28;5051218;28;20201;-60
2022/11/16 06:14:15;;;;;;;72.90;38.90;;;;;;;7.72;100.00;98922.97;5051025;28;20203;-59
2022/11/16 06:16:42;;;;;;;64.20;36.00;;;;;;;7.84;100.00;98922.63;5051044;28;20243;-59
2022/11/16 06:19:09;;;;;;;67.37;37.57;;;;;;;7.86;100.00;98920.00;5051189;28;20694;-58
2022/11/16 06:21:36;;;;;;;70.20;38.30;;;;;;;7.84;100.00;98927.81;5051367;28;20204;-59
2022/11/16 06:24:07;;;;;;;73.23;39.00;;;;;;;7.77;100.00;98923.69;5050807;28;20211;-59
2022/11/16 06:26:35;;;;;;;69.07;36.37;;;;;;;7.88;100.00;98923.41;5050857;28;20593;-58
2022/11/16 06:29:02;;;;;;;64.60;36.07;;;;;;;7.74;100.00;98918.59;5050559;28;20619;-59
2022/11/16 06:31:30;;;;;;;65.33;36.80;;;;;;;7.87;100.00;98922.56;5050799;28;20201;-59
2022/11/16 06:33:57;;;;;;;62.40;36.43;;;;;;;8.12;100.00;98927.06;5050704;28;20206;-59
2022/11/16 06:36:24;;;;;;;65.10;35.40;;;;;;;8.21;100.00;98919.88;5050750;28;20719;-59
2022/11/16 06:38:50;;;;;;;60.33;36.73;;;;;;;8.27;100.00;98921.41;5050818;28;20215;-60
2022/11/16 06:41:18;;;;;;;60.40;35.53;;;;;;;8.24;100.00;98922.34;5050580;28;20197;-59
2022/11/16 06:43:44;;;;;;;57.67;34.97;;;;;;;8.36;100.00;98918.59;5050445;28;20208;-58
2022/11/16 06:46:11;;;;;;;63.47;37.37;;;;;;;8.30;100.00;98917.00;5050792;28;20223;-56
2022/11/16 06:48:40;;;;;;;59.70;33.80;;;;;;;8.35;100.00;98915.16;5050341;28;20617;-56
2022/11/16 06:51:07;;;;;;;62.10;37.73;;;;;;;8.40;100.00;98917.63;5051332;28;20577;-56
2022/11/16 06:53:33;;;;;;;72.70;41.03;;;;;;;8.36;100.00;98909.09;5051117;28;20196;-57
2022/11/16 06:56:02;;;;;;;72.03;40.20;;;;;;;8.44;100.00;98913.22;5051048;28;20196;-56
2022/11/16 06:58:30;;;;;;;67.17;39.40;;;;;;;8.41;100.00;98901.22;5051085;28;20207;-56
2022/11/16 07:00:57;;;;;;;67.67;38.33;;;;;;;8.58;100.00;98911.03;5051341;28;20201;-57
2022/11/16 07:03:24;;;;;;;73.87;39.60;;;;;;;8.60;100.00;98917.00;5051181;28;20283;-56
2022/11/16 07:05:52;;;;;;;64.70;37.10;;;;;;;8.82;100.00;98901.69;5051173;28;20200;-56
2022/11/16 07:08:19;;;;;;;70.13;38.00;;;;;;;8.77;100.00;98904.44;5050950;28;20207;-56
2022/11/16 07:10:46;;;;;;;66.47;37.07;;;;;;;8.92;100.00;98895.31;5050783;28;20390;-57
2022/11/16 07:13:13;;;;;;;68.20;39.37;;;;;;;9.02;100.00;98899.31;5050181;28;20581;-59
2022/11/16 07:15:40;;;;;;;75.03;38.43;;;;;;;9.05;100.00;98901.78;5050918;28;20631;-59
2022/11/16 07:18:07;;;;;;;64.73;36.23;;;;;;;8.86;100.00;98898.97;5050875;28;20636;-58
2022/11/16 07:20:34;;;;;;;62.10;36.40;;;;;;;8.90;100.00;98902.31;5050632;28;20193;-58
2022/11/16 07:23:03;;;;;;;69.03;36.70;;;;;;;8.95;100.00;98896.06;5050562;28;20200;-57
2022/11/16 07:25:32;;;;;;;69.40;36.40;;;;;;;9.05;100.00;98897.47;5050491;28;20230;-55
2022/11/16 07:27:59;;;;;;;64.07;36.23;;;;;;;9.02;100.00;98894.16;5050433;28;20295;-57
2022/11/16 07:30:26;;;;;;;69.87;35.93;;;;;;;8.99;100.00;98899.41;5050337;28;20225;-55
2022/11/16 07:32:57;;;;;;;59.73;36.57;;;;;;;9.00;100.00;98898.53;5050624;28;20196;-57
2022/11/16 07:35:24;;;;;;;65.90;38.47;;;;;;;9.04;100.00;98895.75;5050361;28;20200;-57
2022/11/16 07:37:51;;;;;;;69.90;39.30;;;;;;;9.19;100.00;98899.59;5050221;28;20200;-59
2022/11/16 07:40:20;;;;;;;63.33;37.47;;;;;;;9.06;100.00;98899.16;5050675;28;20665;-59
2022/11/16 07:42:47;;;;;;;67.23;37.50;;;;;;;9.14;100.00;98893.75;5050381;28;20211;-59
2022/11/16 07:45:14;;;;;;;68.80;37.23;;;;;;;9.27;100.00;98887.25;5050351;28;20197;-59
2022/11/16 07:47:41;;;;;;;59.70;36.37;;;;;;;9.43;100.00;98887.59;5050163;28;20295;-60
2022/11/16 07:50:09;;;;;;;66.57;36.03;;;;;;;9.39;100.00;98885.97;5049737;28;20240;-59
2022/11/16 07:52:36;;;;;;;63.80;36.03;;;;;;;9.52;100.00;98881.22;5050366;28;20585;-55
2022/11/16 07:55:04;;;;;;;67.33;36.20;;;;;;;9.57;100.00;98871.56;5049401;28;20556;-55
2022/11/16 07:57:32;;;;;;;68.53;35.83;;;;;;;9.62;100.00;98864.47;5049653;28;20242;-57
2022/11/16 07:59:59;;;;;;;63.23;36.03;;;;;;;9.66;100.00;98871.25;5049992;28;20275;-56
2022/11/16 08:02:26;;;;;;;57.87;34.43;;;;;;;9.60;100.00;98871.44;5049939;28;20204;-57
2022/11/16 08:04:53;;;;;;;65.33;36.13;;;;;;;9.51;100.00;98875.19;5049671;28;20197;-57
2022/11/16 08:07:20;;;;;;;60.90;35.33;;;;;;;9.50;100.00;98880.44;5050236;28;20200;-58
2022/11/16 08:09:48;;;;;;;115.43;56.97;;;;;;;9.70;100.00;98871.09;5050053;28;20217;-58
2022/11/16 08:12:16;;;;;;;87.07;40.17;;;;;;;9.77;100.00;98872.56;5049836;28;20686;-60
2022/11/16 08:14:44;;;;;;;91.97;47.60;;;;;;;9.84;100.00;98870.56;5049983;28;20582;-59
2022/11/16 08:17:11;;;;;;;129.33;60.53;;;;;;;9.83;100.00;98874.06;5049816;28;20196;-59
2022/11/16 08:19:39;;;;;;;99.77;46.63;;;;;;;9.94;100.00;98846.00;5049504;28;20196;-59
2022/11/16 08:22:06;;;;;;;80.13;40.60;;;;;;;10.05;100.00;98856.81;5049451;28;20200;-59
2022/11/16 08:24:32;;;;;;;68.97;39.00;;;;;;;10.10;100.00;98854.91;5049458;28;20279;-59
2022/11/16 08:26:59;;;;;;;67.10;36.77;;;;;;;10.28;100.00;98855.16;5049342;28;20239;-58
2022/11/16 08:29:27;;;;;;;69.63;37.40;;;;;;;10.48;100.00;98850.06;5049442;28;20330;-59
2022/11/16 08:31:55;;;;;;;58.97;37.70;;;;;;;10.60;100.00;98847.00;5049838;28;20192;-57
2022/11/16 08:34:22;;;;;;;67.67;38.40;;;;;;;10.70;100.00;98844.88;5049428;28;20203;-56
2022/11/16 08:36:49;;;;;;;67.60;35.23;;;;;;;10.77;100.00;98847.16;5049764;28;20279;-57
2022/11/16 08:39:16;;;;;;;59.50;34.77;;;;;;;10.84;100.00;98847.72;5049340;28;20204;-56
2022/11/16 08:41:43;;;;;;;62.50;34.53;;;;;;;10.95;100.00;98840.34;5049437;28;20571;-57
2022/11/16 08:44:10;;;;;;;55.83;34.90;;;;;;;10.90;100.00;98829.31;5049230;28;20196;-56
2022/11/16 08:46:38;;;;;;;61.10;34.00;;;;;;;10.86;100.00;98831.19;5049084;28;20207;-56
2022/11/16 08:49:07;;;;;;;62.87;37.10;;;;;;;10.95;100.00;98819.56;5048995;28;20722;-56
2022/11/16 08:51:34;;;;;;;113.63;68.30;;;;;;;11.01;100.00;98824.53;5049317;28;20196;-56
2022/11/16 08:54:02;;;;;;;60.40;37.73;;;;;;;11.10;100.00;98820.69;5049196;28;20202;-57
2022/11/16 08:56:29;;;;;;;64.87;38.50;;;;;;;11.12;100.00;98800.72;5042039;28;20297;-57
2022/11/16 08:58:57;;;;;;;64.17;36.93;;;;;;;11.13;100.00;98802.41;5048049;28;20240;-57
2022/11/16 09:01:26;;;;;;;58.23;34.93;;;;;;;11.09;100.00;98808.63;5048822;28;20676;-57
2022/11/16 09:03:53;;;;;;;61.37;36.40;;;;;;;11.21;100.00;98810.69;5048665;28;20236;-60
2022/11/16 09:06:23;;;;;;;59.70;36.67;;;;;;;11.17;100.00;98807.38;5048812;28;20308;-60
2022/11/16 09:08:50;;;;;;;68.53;38.00;;;;;;;11.34;100.00;98811.03;5062956;28;20223;-57
2022/11/16 09:11:19;;;;;;;63.27;36.23;;;;;;;11.18;100.00;98806.47;5068746;28;20233;-57
2022/11/16 09:13:47;;;;;;;64.63;38.40;;;;;;;11.24;100.00;98800.19;5067222;28;20195;-57
2022/11/16 09:16:15;;;;;;;65.83;37.13;;;;;;;11.28;100.00;98789.63;5069213;28;20202;-56
2022/11/16 09:18:42;;;;;;;62.83;37.13;;;;;;;11.50;100.00;98788.69;5068782;28;20287;-56
2022/11/16 09:21:09;;;;;;;66.40;38.00;;;;;;;11.44;100.00;98779.38;5069130;28;20672;-56
2022/11/16 09:23:38;;;;;;;67.30;38.67;;;;;;;11.60;100.00;98776.97;5069054;28;20203;-55
2022/11/16 09:26:06;;;;;;;65.57;37.63;;;;;;;11.64;100.00;98771.53;5068775;28;20202;-56
2022/11/16 09:28:33;;;;;;;67.90;39.87;;;;;;;11.67;100.00;98769.72;5068979;28;20288;-56
2022/11/16 09:31:02;;;;;;;70.90;42.07;;;;;;;11.70;100.00;98761.78;5068872;28;20226;-56
2022/11/16 09:33:30;;;;;;;75.10;44.30;;;;;;;11.79;100.00;98751.84;5069078;28;20188;-56
2022/11/16 09:36:01;;;;;;;83.70;43.47;;;;;;;11.96;100.00;98756.28;5070872;28;20581;-55
2022/11/16 09:38:28;;;;;;;52.53;35.83;;;;;;;12.05;100.00;98753.25;5072617;28;20200;-57
2022/11/16 09:40:57;;;;;;;60.27;38.27;;;;;;;12.15;100.00;98748.44;5072636;28;20239;-58
2022/11/16 09:43:37;;;;;;;60.13;37.10;;;;;;;12.18;100.00;98735.31;5073272;28;20200;-59
2022/11/16 09:46:16;;;;;;;53.67;33.90;;;;;;;12.23;100.00;98736.75;5072864;28;21283;-56
2022/11/16 09:48:43;;;;;;;53.17;33.50;;;;;;;12.40;100.00;98732.50;5072525;28;20706;-57
2022/11/16 09:51:15;;;;;;;60.73;36.37;;;;;;;12.47;100.00;98729.53;5072512;28;20220;-57
2022/11/16 09:53:46;;;;;;;54.13;33.27;;;;;;;12.64;100.00;98716.50;5072515;28;20192;-56
2022/11/16 09:56:21;;;;;;;56.90;36.13;;;;;;;12.61;100.00;98711.47;5072582;28;20226;-59
2022/11/16 09:58:55;;;;;;;51.73;30.87;;;;;;;12.43;100.00;98699.34;5072461;28;20195;-57
2022/11/16 10:01:26;;;;;;;62.17;37.43;;;;;;;12.48;100.00;98688.72;5072435;28;20257;-58
2022/11/16 10:04:14;;;;;;;55.90;33.63;;;;;;;12.56;100.00;98694.38;5072226;28;20211;-58
2022/11/16 10:06:49;;;;;;;46.17;30.37;;;;;;;12.50;100.00;98687.72;5072303;28;20204;-57
2022/11/16 10:09:16;;;;;;;50.00;29.70;;;;;;;12.48;100.00;98673.09;5072748;28;20203;-57
2022/11/16 10:11:55;;;;;;;45.53;30.03;;;;;;;12.65;100.00;98670.47;5072624;28;20224;-59
2022/11/16 10:15:00;;;;;;;48.70;28.93;;;;;;;12.72;100.00;98666.66;5072710;28;20222;-60
2022/11/16 10:17:39;;;;;;;51.07;29.43;;;;;;;12.81;100.00;98661.00;5068168;28;20606;-59
2022/11/16 10:20:24;;;;;;;50.23;30.57;;;;;;;13.04;100.00;98658.03;5072330;28;20204;-60
2022/11/16 10:23:01;;;;;;;49.33;30.43;;;;;;;13.17;100.00;98652.22;5072662;28;20672;-60
2022/11/16 10:25:39;;;;;;;44.63;27.33;;;;;;;13.15;100.00;98652.28;5072442;28;20196;-61
2022/11/16 10:28:26;;;;;;;43.63;28.27;;;;;;;13.29;100.00;98644.59;5072377;28;20200;-59
2022/11/16 10:31:02;;;;;;;46.13;27.43;;;;;;;13.38;100.00;98638.03;5071916;28;20223;-57
2022/11/16 10:33:34;;;;;;;43.43;27.40;;;;;;;13.44;100.00;98630.72;5071943;28;20283;-55
2022/11/16 10:36:05;;;;;;;45.27;27.60;;;;;;;13.55;100.00;98631.88;5072016;28;20200;-58
2022/11/16 10:38:33;;;;;;;43.93;29.60;;;;;;;13.58;100.00;98629.97;5071856;28;20200;-58
2022/11/16 10:41:05;;;;;;;50.07;28.97;;;;;;;13.81;100.00;98616.47;5071797;28;20585;-58
2022/11/16 10:43:33;;;;;;;48.07;30.07;;;;;;;13.84;100.00;98612.88;5071706;28;20199;-57
2022/11/16 10:46:05;;;;;;;51.83;30.73;;;;;;;14.01;99.74;98617.13;5071763;28;20207;-57
2022/11/16 10:48:40;;;;;;;44.33;29.80;;;;;;;13.96;99.76;98606.13;5071854;28;20238;-57
2022/11/16 10:51:08;;;;;;;46.93;31.80;;;;;;;13.99;100.00;98601.56;5071683;28;20235;-57
2022/11/16 10:53:36;;;;;;;53.90;33.57;;;;;;;14.08;100.00;98594.97;5071760;28;20283;-58
2022/11/16 10:56:14;;;;;;;50.20;32.27;;;;;;;14.14;100.00;98595.44;5072111;28;20207;-57
2022/11/16 10:58:55;;;;;;;51.43;33.17;;;;;;;14.20;100.00;98589.06;5071543;28;20294;-58
2022/11/16 11:01:31;;;;;;;51.27;33.43;;;;;;;14.27;99.14;98582.53;5071717;28;20194;-57
2022/11/16 11:04:15;;;;;;;52.57;33.40;;;;;;;14.32;99.16;98577.91;5071715;28;20199;-57
2022/11/16 11:06:42;;;;;;;53.67;33.00;;;;;;;14.26;99.42;98577.41;5051849;28;20201;-58
2022/11/16 11:09:22;;;;;;;50.50;33.50;;;;;;;14.26;100.00;98572.19;5051105;28;20207;-57
2022/11/16 11:14:59;;;;;;;50.30;33.73;;;;;;;14.29;100.00;98561.56;5050939;28;20625;-58
2022/11/16 11:17:26;;;;;;;66.53;37.60;;;;;;;14.34;99.88;98560.34;5051094;28;20215;-57
2022/11/16 11:19:58;;;;;;;53.50;34.03;;;;;;;14.47;99.90;98556.13;5051057;28;20653;-57
2022/11/16 11:22:26;;;;;;;54.00;33.03;;;;;;;14.48;98.56;98544.75;5050724;28;20216;-58
2022/11/16 11:24:53;;;;;;;45.83;30.67;;;;;;;14.59;98.17;98545.88;5051152;28;20243;-60
2022/11/16 11:27:23;;;;;;;43.83;30.37;;;;;;;14.65;98.33;98548.13;5050471;28;20196;-60
2022/11/16 11:29:55;;;;;;;44.37;30.07;;;;;;;14.67;98.10;98544.47;5050803;28;20219;-60
2022/11/16 11:32:25;;;;;;;45.53;29.10;;;;;;;14.77;97.20;98532.56;5050609;28;20235;-60
2022/11/16 11:34:54;;;;;;;46.13;29.33;;;;;;;14.93;96.26;98535.03;5050495;28;20204;-59
2022/11/16 11:37:25;;;;;;;42.07;29.27;;;;;;;14.88;96.61;98539.72;5049984;28;20287;-60
2022/11/16 11:40:20;;;;;;;51.53;30.10;;;;;;;15.03;96.68;98540.53;5048966;28;20627;-60
2022/11/16 11:42:58;;;;;;;44.33;29.30;;;;;;;15.20;95.59;98535.94;5047428;28;20205;-60
2022/11/16 11:45:38;;;;;;;48.27;30.97;;;;;;;15.24;95.71;98539.19;5050655;28;20723;-57
2022/11/16 11:48:22;;;;;;;45.07;29.23;;;;;;;15.36;94.49;98534.94;5050259;28;20592;-57
2022/11/16 11:50:54;;;;;;;45.10;30.53;;;;;;;15.37;94.37;98529.63;5050165;28;20230;-57
2022/11/16 11:53:35;;;;;;;45.17;28.73;;;;;;;15.46;94.20;98528.22;5049996;28;20201;-57
2022/11/16 11:56:02;;;;;;;44.23;27.37;;;;;;;15.43;93.56;98520.56;5050029;28;20199;-57
2022/11/16 11:58:31;;;;;;;42.17;26.30;;;;;;;15.38;93.58;98517.38;5049309;28;20209;-57
2022/11/16 12:01:19;;;;;;;41.50;27.77;;;;;;;15.50;93.68;98519.22;5050170;28;20820;-57
2022/11/16 12:04:28;;;;;;;45.07;29.67;;;;;;;15.44;94.38;98509.16;5050164;28;20211;-57
2022/11/16 12:07:02;;;;;;;37.53;26.27;;;;;;;15.46;94.01;98504.69;5050013;28;20205;-56
2022/11/16 12:09:37;;;;;;;45.07;26.60;;;;;;;15.45;94.16;98500.38;5050035;28;20277;-56
2022/11/16 12:12:20;;;;;;;40.37;24.67;;;;;;;15.43;93.00;98494.41;5049667;28;20311;-57
2022/11/16 12:15:10;;;;;;;43.10;27.10;;;;;;;15.49;93.95;98494.84;5049708;28;20216;-57
2022/11/16 12:17:50;;;;;;;39.00;26.80;;;;;;;15.58;93.74;98488.19;5050084;28;20284;-58
2022/11/16 12:20:30;;;;;;;41.80;26.87;;;;;;;15.54;94.47;98482.34;5049702;28;20208;-58
2022/11/16 12:23:30;;;;;;;36.37;25.30;;;;;;;15.56;94.59;98484.88;5049721;28;20228;-57
2022/11/16 12:26:05;;;;;;;32.53;23.63;;;;;;;15.54;94.78;98481.47;5049543;28;20197;-57
2022/11/16 12:28:48;;;;;;;34.30;24.47;;;;;;;15.65;94.42;98473.78;5049261;28;20283;-57
2022/11/16 12:31:39;;;;;;;36.20;24.60;;;;;;;15.70;94.63;98470.84;5049228;28;20220;-57
2022/11/16 12:34:15;;;;;;;33.57;24.27;;;;;;;15.73;94.29;98463.66;5047208;28;20719;-57
2022/11/16 12:36:53;;;;;;;40.13;24.90;;;;;;;15.74;94.46;98475.81;5049306;28;20207;-57
2022/11/16 12:39:24;;;;;;;35.60;23.07;;;;;;;15.75;93.68;98463.56;5049366;28;20201;-56
2022/11/16 12:42:32;;;;;;;36.67;23.53;;;;;;;15.86;93.05;98472.38;5049301;28;20196;-57
2022/11/16 12:45:23;;;;;;;33.83;23.70;;;;;;;15.91;92.97;98474.69;5049187;28;20201;-57
2022/11/16 12:48:13;;;;;;;39.33;24.43;;;;;;;15.74;93.78;98462.72;5049272;28;20192;-58
2022/11/16 12:50:56;;;;;;;32.73;22.67;;;;;;;15.86;93.65;98468.91;5049353;28;20220;-57
2022/11/16 12:53:55;;;;;;;32.13;23.10;;;;;;;15.87;93.38;98463.59;5054650;28;20682;-57
2022/11/16 12:56:32;;;;;;;34.43;23.03;;;;;;;15.83;93.99;98454.25;5051784;28;20739;-60
2022/11/16 12:59:25;;;;;;;35.97;24.07;;;;;;;15.84;93.61;98458.53;5057005;28;20235;-59
2022/11/16 13:02:01;;;;;;;32.57;22.90;;;;;;;16.01;93.19;98456.59;5065819;28;20196;-56
2022/11/16 13:04:34;;;;;;;30.30;22.13;;;;;;;16.00;93.25;98453.13;5056980;28;20218;-58
2022/11/16 13:07:11;;;;;;;34.73;23.97;;;;;;;16.13;92.39;98458.38;5069135;28;20196;-58
2022/11/16 13:09:43;;;;;;;29.77;22.17;;;;;;;15.98;92.83;98453.22;5069706;28;20206;-58
2022/11/16 13:12:15;;;;;;;39.87;21.77;;;;;;;16.00;93.36;98458.38;5073306;28;20731;-59
2022/11/16 13:14:45;;;;;;;32.60;22.23;;;;;;;15.98;93.74;98465.47;5073220;28;20203;-60
2022/11/16 13:17:19;;;;;;;28.93;20.10;;;;;;;15.95;92.53;98456.03;5073080;28;20589;-59
2022/11/16 13:19:57;;;;;;;29.20;20.93;;;;;;;15.97;93.04;98456.78;5072839;28;20200;-58
2022/11/16 13:22:27;;;;;;;31.00;20.20;;;;;;;16.00;93.57;98457.53;5073031;28;20192;-59
2022/11/16 13:24:59;;;;;;;26.77;19.97;;;;;;;16.02;92.46;98460.88;5073080;28;20192;-60
2022/11/16 13:27:34;;;;;;;29.83;19.37;;;;;;;16.01;91.79;98461.81;5072880;28;20231;-59
2022/11/16 13:30:05;;;;;;;28.67;19.10;;;;;;;16.04;91.97;98456.34;5072696;28;20201;-60
2022/11/16 13:32:45;;;;;;;28.83;20.90;;;;;;;16.06;92.34;98457.09;5072705;28;20223;-60
2022/11/16 13:35:15;;;;;;;36.50;21.77;;;;;;;16.09;92.94;98457.72;5072764;28;20203;-60
2022/11/16 13:37:48;;;;;;;32.93;22.77;;;;;;;16.07;93.27;98456.16;5072760;28;20243;-59
2022/11/16 13:40:29;;;;;;;34.27;22.93;;;;;;;16.05;93.60;98453.63;5072657;28;20207;-60
2022/11/16 13:43:15;;;;;;;37.70;22.43;;;;;;;15.93;93.51;98430.91;5072878;28;20200;-59
2022/11/16 13:45:53;;;;;;;42.73;24.90;;;;;;;16.03;94.30;98449.47;5072948;28;20623;-60
2022/11/16 13:48:24;;;;;;;43.57;24.37;;;;;;;15.85;94.78;98454.16;5072148;28;20257;-60
2022/11/16 13:50:54;;;;;;;42.13;24.60;;;;;;;15.84;95.15;98447.25;5072299;28;20234;-58
2022/11/16 13:53:29;;;;;;;38.80;24.03;;;;;;;15.84;95.47;98440.22;5072255;28;20204;-59
2022/11/16 13:55:58;;;;;;;35.83;25.07;;;;;;;15.83;95.73;98435.94;5072444;28;20310;-59
2022/11/16 13:58:27;;;;;;;49.07;25.40;;;;;;;15.92;95.02;98437.09;5072233;28;20196;-59
2022/11/16 14:00:59;;;;;;;45.57;25.77;;;;;;;15.95;95.63;98440.34;5051223;28;20252;-57
2022/11/16 14:03:37;;;;;;;50.23;27.73;;;;;;;15.94;95.23;98432.59;5031882;28;20217;-57
2022/11/16 14:06:05;;;;;;;37.03;25.57;;;;;;;15.94;95.15;98443.91;5046295;28;20247;-56
2022/11/16 14:08:48;;;;;;;41.27;25.30;;;;;;;15.78;95.50;98443.28;5071388;28;20231;-57
2022/11/16 14:11:36;;;;;;;32.80;24.03;;;;;;;15.77;95.64;98436.34;5065245;28;20231;-57
2022/11/16 14:14:05;;;;;;;31.90;24.00;;;;;;;15.78;95.91;98438.03;5055191;28;20771;-56
2022/11/16 14:16:46;;;;;;;33.47;23.77;;;;;;;15.77;95.94;98427.66;5061694;28;20212;-57
2022/11/16 14:19:53;;;;;;;38.63;25.20;;;;;;;15.75;96.29;98433.00;5060358;28;20220;-57
2022/11/16 14:22:47;;;;;;;47.47;30.73;;;;;;;15.68;98.15;98431.75;5060792;28;20216;-57
2022/11/16 14:25:30;;;;;;;50.73;32.13;;;;;;;15.50;100.00;98423.28;5063782;28;20214;-56
2022/11/16 14:28:18;;;;;;;63.40;35.57;;;;;;;15.49;100.00;98423.41;5051581;28;20195;-57
2022/11/16 14:30:56;;;;;;;63.93;36.40;;;;;;;15.32;100.00;98408.00;5056889;28;20193;-57
2022/11/16 14:33:32;;;;;;;58.30;37.30;;;;;;;15.29;100.00;98422.09;5057227;28;20211;-57
2022/11/16 14:36:02;;;;;;;61.87;38.43;;;;;;;15.29;100.00;98429.09;5053822;28;20256;-58
2022/11/16 14:38:32;;;;;;;65.90;38.67;;;;;;;15.27;100.00;98427.41;5050579;28;20287;-57
2022/11/16 14:41:04;;;;;;;67.90;40.47;;;;;;;15.20;100.00;98426.16;5050472;28;20597;-56
2022/11/16 14:43:35;;;;;;;66.93;40.83;;;;;;;15.09;100.00;98427.78;5048206;28;20735;-60
2022/11/16 14:46:07;;;;;;;67.53;42.30;;;;;;;15.06;100.00;98422.75;5059992;28;20316;-61
2022/11/16 14:48:41;;;;;;;72.23;44.07;;;;;;;14.85;100.00;98420.56;5058144;28;20274;-60
2022/11/16 14:51:13;;;;;;;95.77;53.73;;;;;;;14.90;100.00;98425.50;5061148;28;20255;-60
2022/11/16 14:53:46;;;;;;;88.67;52.53;;;;;;;14.84;100.00;98423.28;5057446;28;20664;-59
2022/11/16 14:56:17;;;;;;;98.13;58.00;;;;;;;14.84;100.00;98433.72;5059349;28;20231;-61
2022/11/16 14:58:52;;;;;;;96.97;57.00;;;;;;;14.70;100.00;98420.69;5059872;28;20212;-57
2022/11/16 15:01:22;;;;;;;139.40;85.60;;;;;;;14.59;100.00;98417.91;5063834;28;20226;-56
2022/11/16 15:03:54;;;;;;;81.33;48.80;;;;;;;14.62;100.00;98425.56;5069184;28;20192;-58
2022/11/16 15:06:21;;;;;;;88.27;55.90;;;;;;;14.54;100.00;98428.66;5059635;28;20278;-57
2022/11/16 15:08:53;;;;;;;80.40;49.43;;;;;;;14.43;100.00;98416.28;5030548;28;20300;-57
2022/11/16 15:12:40;;;;;;;80.30;47.37;;;;;;;14.38;100.00;98431.34;5053655;28;20220;-57
2022/11/16 15:14:18;;;;;;;72.90;45.97;;;;;;;14.27;100.00;98436.38;5060292;28;20254;-58
2022/11/16 15:16:49;;;;;;;79.53;42.60;;;;;;;14.25;100.00;98430.41;5065917;28;20224;-58
2022/11/16 15:19:16;;;;;;;73.60;44.27;;;;;;;14.24;100.00;98433.94;5058490;28;20212;-59
2022/11/16 15:21:51;;;;;;;76.63;43.33;;;;;;;14.16;100.00;98421.38;5048794;28;20703;-60
2022/11/16 15:24:23;;;;;;;71.33;44.80;;;;;;;14.15;100.00;98435.34;5049265;28;20643;-59
2022/11/16 15:26:51;;;;;;;72.73;47.37;;;;;;;14.05;100.00;98422.94;5051150;28;20224;-61
2022/11/16 15:29:20;;;;;;;83.50;47.50;;;;;;;14.10;100.00;98426.13;5061320;28;20192;-60
2022/11/16 15:31:48;;;;;;;83.23;49.47;;;;;;;14.18;100.00;98426.50;5069789;28;20311;-60
2022/11/16 15:34:17;;;;;;;86.33;48.47;;;;;;;14.06;100.00;98411.59;5055043;28;20200;-56
2022/11/16 15:36:44;;;;;;;82.60;49.13;;;;;;;14.06;100.00;98428.09;5048975;28;20189;-55
2022/11/16 15:39:14;;;;;;;83.33;47.87;;;;;;;13.77;100.00;98395.06;5054519;28;20235;-56
2022/11/16 15:41:42;;;;;;;76.80;44.90;;;;;;;13.95;100.00;98424.44;5058962;28;20220;-56
2022/11/16 15:44:15;;;;;;;84.73;46.70;;;;;;;13.94;100.00;98431.44;5055736;28;21131;-56
2022/11/16 15:46:43;;;;;;;84.63;46.17;;;;;;;13.91;100.00;98429.00;5050237;28;20596;-57
2022/11/16 15:49:27;;;;;;;94.53;53.03;;;;;;;13.90;100.00;98427.31;5048504;28;20684;-56
2022/11/16 15:51:54;;;;;;;81.87;47.63;;;;;;;13.87;100.00;98408.41;5046065;28;20260;-56
2022/11/16 15:54:24;;;;;;;88.07;47.70;;;;;;;13.85;100.00;98421.53;5057665;28;20675;-56
2022/11/16 15:56:53;;;;;;;82.60;47.87;;;;;;;13.83;100.00;98423.41;5048064;28;20193;-55
2022/11/16 15:59:26;;;;;;;77.23;45.30;;;;;;;13.77;100.00;98424.59;5048176;28;20211;-56
2022/11/16 16:01:54;;;;;;;75.73;47.10;;;;;;;13.74;100.00;98426.56;5049133;28;20203;-60
2022/11/16 16:04:21;;;;;;;92.83;54.17;;;;;;;13.69;100.00;98421.59;5049454;28;20283;-59
2022/11/16 16:06:51;;;;;;;129.33;73.17;;;;;;;13.56;100.00;98417.19;5049459;28;20258;-60
2022/11/16 16:09:27;;;;;;;116.27;66.93;;;;;;;13.63;100.00;98421.13;5049147;28;20197;-60
2022/11/16 16:11:55;;;;;;;126.73;68.90;;;;;;;13.70;100.00;98419.84;5049031;28;20617;-61
2022/11/16 16:14:26;;;;;;;105.67;60.07;;;;;;;13.77;100.00;98424.59;5049038;28;20684;-60
2022/11/16 16:16:54;;;;;;;96.20;52.80;;;;;;;13.78;100.00;98425.44;5048881;28;20200;-60
2022/11/16 16:19:34;;;;;;;88.20;51.23;;;;;;;13.80;100.00;98421.81;5048796;28;20204;-59
2022/11/16 16:22:02;;;;;;;87.97;48.93;;;;;;;13.80;100.00;98413.13;5047705;28;20204;-59
2022/11/16 16:24:39;;;;;;;98.43;54.50;;;;;;;13.61;100.00;98400.34;5047614;28;20211;-60
2022/11/16 16:27:17;;;;;;;96.43;53.67;;;;;;;13.67;100.00;98404.34;5049296;28;20342;-59
2022/11/16 16:29:47;;;;;;;96.23;53.87;;;;;;;13.79;100.00;98416.66;5054906;28;20188;-60
2022/11/16 16:32:20;;;;;;;97.80;55.57;;;;;;;13.70;100.00;98407.63;5058103;28;20592;-60